Time;durP1;ratioP1;P1;durP2;ratioP2;P2;SDS_P1;SDS_P2;PMS_P1;PMS_P2;Temp;Humidity;BMP_temperature;BMP_pressure;BME280_temperature;BME280_humidity;BME280_pressure;Samples;Min_cycle;Max_cycle;Signal;HPM_P1;HPM_P2
2023/01/06 00:00:11;;;;;;;21.98;5.40;;;;;;;;;;5032105;28;20888;-78
2023/01/06 00:02:37;;;;;;;17.73;5.50;;;;;;;;;;5031150;28;20056;-77
2023/01/06 00:05:04;;;;;;;24.67;4.93;;;;;;;;;;5038624;28;20120;-77
2023/01/06 00:07:31;;;;;;;24.60;5.25;;;;;;;;;;5048984;28;20061;-77
2023/01/06 00:09:57;;;;;;;21.42;5.43;;;;;;;;;;5028954;28;20075;-78
2023/01/06 00:12:25;;;;;;;25.48;6.18;;;;;;;;;;5030887;28;20056;-77
2023/01/06 00:14:52;;;;;;;24.85;5.88;;;;;;;;;;5035818;28;20053;-77
2023/01/06 00:17:18;;;;;;;21.30;5.28;;;;;;;;;;5051129;28;20053;-77
2023/01/06 00:19:44;;;;;;;18.27;4.90;;;;;;;;;;5032126;28;20399;-77
2023/01/06 00:22:11;;;;;;;20.40;4.63;;;;;;;;;;5015947;28;20079;-77
2023/01/06 00:24:37;;;;;;;17.70;3.88;;;;;;;;;;5032694;28;20052;-78
2023/01/06 00:27:03;;;;;;;22.35;4.25;;;;;;;;;;5035578;28;20071;-77
2023/01/06 00:29:30;;;;;;;23.58;4.50;;;;;;;;;;5036401;28;20061;-78
2023/01/06 00:31:57;;;;;;;21.05;4.15;;;;;;;;;;5035762;28;20057;-77
2023/01/06 00:34:24;;;;;;;17.23;3.70;;;;;;;;;;5016292;28;20057;-78
2023/01/06 00:36:50;;;;;;;19.17;3.65;;;;;;;;;;5050979;28;20113;-77
2023/01/06 00:39:17;;;;;;;17.13;3.45;;;;;;;;;;5034579;28;20058;-77
2023/01/06 00:44:32;;;;;;;21.40;3.90;;;;;;;;;;5032232;28;20166;-77
2023/01/06 00:46:58;;;;;;;18.00;3.65;;;;;;;;;;5052393;28;20057;-77
2023/01/06 00:49:25;;;;;;;16.77;3.20;;;;;;;;;;5037033;28;20065;-78
2023/01/06 00:51:51;;;;;;;14.18;3.15;;;;;;;;;;5023027;28;20799;-78
2023/01/06 00:54:18;;;;;;;21.77;3.55;;;;;;;;;;5013374;28;20061;-77
2023/01/06 00:56:45;;;;;;;17.35;3.08;;;;;;;;;;5032432;28;20054;-77
2023/01/06 00:59:16;;;;;;;19.50;3.53;;;;;;;;;;5029514;28;20053;-78
2023/01/06 01:01:43;;;;;;;21.90;3.45;;;;;;;;;;5030277;28;20171;-77
2023/01/06 01:04:10;;;;;;;19.75;3.58;;;;;;;;;;5029205;28;20489;-77
2023/01/06 01:06:37;;;;;;;17.80;3.70;;;;;;;;;;5029454;28;20115;-77
2023/01/06 01:09:04;;;;;;;20.98;3.58;;;;;;;;;;5028856;28;20079;-77
2023/01/06 01:14:17;;;;;;;19.92;3.42;;;;;;;;;;5031377;28;20052;-77
2023/01/06 01:16:43;;;;;;;21.52;3.30;;;;;;;;;;5034927;28;20066;-78
2023/01/06 01:19:10;;;;;;;17.85;3.10;;;;;;;;;;5038690;28;20112;-78
2023/01/06 01:21:37;;;;;;;15.20;3.00;;;;;;;;;;5031751;28;20058;-78
2023/01/06 01:24:04;;;;;;;22.48;3.30;;;;;;;;;;5030367;28;20152;-78
2023/01/06 01:26:31;;;;;;;21.30;3.17;;;;;;;;;;5031625;28;20053;-78
2023/01/06 01:28:57;;;;;;;21.02;3.50;;;;;;;;;;5031323;28;20050;-78
2023/01/06 01:31:23;;;;;;;17.83;2.92;;;;;;;;;;5030865;28;20072;-78
2023/01/06 01:33:50;;;;;;;14.20;2.75;;;;;;;;;;5031844;28;20072;-78
2023/01/06 01:36:16;;;;;;;18.63;3.60;;;;;;;;;;5030160;28;20053;-79
2023/01/06 01:38:43;;;;;;;21.40;3.10;;;;;;;;;;5031480;28;20133;-79
2023/01/06 01:41:14;;;;;;;23.55;2.90;;;;;;;;;;5030566;28;20095;-79
2023/01/06 01:43:47;;;;;;;18.17;3.00;;;;;;;;;;5028564;28;20055;-78
2023/01/06 01:46:16;;;;;;;19.98;3.25;;;;;;;;;;5029647;28;20764;-78
2023/01/06 01:48:43;;;;;;;21.05;3.20;;;;;;;;;;5013404;28;20076;-78
2023/01/06 01:51:12;;;;;;;19.05;2.85;;;;;;;;;;5023315;28;20049;-78
2023/01/06 01:53:41;;;;;;;17.83;3.53;;;;;;;;;;5028811;28;20045;-78
2023/01/06 01:56:10;;;;;;;18.92;2.90;;;;;;;;;;5046733;28;20060;-78
2023/01/06 01:58:41;;;;;;;21.73;3.90;;;;;;;;;;5045311;28;20049;-79
2023/01/06 02:01:08;;;;;;;17.88;3.53;;;;;;;;;;5030055;28;20413;-78
2023/01/06 02:03:35;;;;;;;16.77;2.63;;;;;;;;;;5026381;28;20080;-78
2023/01/06 02:06:04;;;;;;;10.75;2.50;;;;;;;;;;5029001;28;20065;-78
2023/01/06 02:08:43;;;;;;;23.63;3.10;;;;;;;;;;5029042;28;20045;-78
2023/01/06 02:11:09;;;;;;;16.95;2.88;;;;;;;;;;5028713;28;20053;-78
2023/01/06 02:13:38;;;;;;;18.85;2.85;;;;;;;;;;5029516;28;20070;-79
2023/01/06 02:16:08;;;;;;;13.38;2.55;;;;;;;;;;5011853;28;20057;-78
2023/01/06 02:18:50;;;;;;;18.08;3.17;;;;;;;;;;5030058;28;20061;-79
2023/01/06 02:21:35;;;;;;;15.65;2.95;;;;;;;;;;5029234;28;20110;-78
2023/01/06 02:24:01;;;;;;;15.60;3.40;;;;;;;;;;5027672;28;20057;-78
2023/01/06 02:26:40;;;;;;;21.10;3.53;;;;;;;;;;5029259;28;20088;-77
2023/01/06 02:29:10;;;;;;;11.15;3.38;;;;;;;;;;5010884;28;20056;-78
2023/01/06 02:31:55;;;;;;;24.92;4.43;;;;;;;;;;5027192;28;20144;-79
2023/01/06 02:34:22;;;;;;;24.95;4.13;;;;;;;;;;5037397;28;20053;-77
2023/01/06 02:36:49;;;;;;;19.65;4.38;;;;;;;;;;5057814;28;20109;-79
2023/01/06 02:39:15;;;;;;;23.25;3.95;;;;;;;;;;5047379;28;20053;-77
2023/01/06 02:41:45;;;;;;;19.38;3.78;;;;;;;;;;5028088;28;20136;-77
2023/01/06 02:44:22;;;;;;;18.75;3.72;;;;;;;;;;5008782;28;20080;-77
2023/01/06 02:46:49;;;;;;;19.30;4.20;;;;;;;;;;5027058;28;20057;-76
2023/01/06 02:49:23;;;;;;;22.83;3.60;;;;;;;;;;5030014;28;20041;-76
2023/01/06 02:51:54;;;;;;;23.80;3.55;;;;;;;;;;5017408;28;20049;-77
2023/01/06 02:54:23;;;;;;;20.52;4.07;;;;;;;;;;5026290;28;20796;-77
2023/01/06 02:56:54;;;;;;;24.42;3.17;;;;;;;;;;5044973;28;20059;-77
2023/01/06 02:59:31;;;;;;;17.40;3.10;;;;;;;;;;5035952;28;20140;-75
2023/01/06 03:02:02;;;;;;;18.60;3.22;;;;;;;;;;5028914;28;20434;-77
2023/01/06 03:04:37;;;;;;;20.65;2.70;;;;;;;;;;5032661;28;20135;-78
2023/01/06 03:07:05;;;;;;;14.82;3.53;;;;;;;;;;5059871;28;20515;-78
2023/01/06 03:09:36;;;;;;;24.40;3.08;;;;;;;;;;5048830;28;20124;-77
2023/01/06 03:12:08;;;;;;;10.25;2.50;;;;;;;;;;5048273;28;20047;-77
2023/01/06 03:14:37;;;;;;;13.18;2.58;;;;;;;;;;5043784;28;20122;-78
2023/01/06 03:17:04;;;;;;;16.40;2.72;;;;;;;;;;5052402;28;20076;-77
2023/01/06 03:19:31;;;;;;;9.35;2.75;;;;;;;;;;5042081;28;20049;-77
2023/01/06 03:21:58;;;;;;;17.08;2.67;;;;;;;;;;5013415;28;20103;-77
2023/01/06 03:24:24;;;;;;;11.75;2.33;;;;;;;;;;5031613;28;20061;-78
2023/01/06 03:26:52;;;;;;;17.77;2.33;;;;;;;;;;5051218;28;20049;-78
2023/01/06 03:29:19;;;;;;;15.82;2.75;;;;;;;;;;5043949;28;20075;-75
2023/01/06 03:31:57;;;;;;;11.60;3.42;;;;;;;;;;5030248;28;20135;-75
2023/01/06 03:34:43;;;;;;;13.23;2.13;;;;;;;;;;5030132;28;20053;-78
2023/01/06 03:37:15;;;;;;;12.50;2.88;;;;;;;;;;5031417;28;20059;-78
2023/01/06 03:39:48;;;;;;;14.05;2.50;;;;;;;;;;5031279;28;20160;-78
2023/01/06 03:45:34;;;;;;;10.30;2.28;;;;;;;;;;5031027;28;20053;-78
2023/01/06 03:48:09;;;;;;;12.13;2.08;;;;;;;;;;5012983;28;20081;-77
2023/01/06 03:50:42;;;;;;;10.48;2.40;;;;;;;;;;5025635;28;20056;-77
2023/01/06 03:53:16;;;;;;;11.05;2.25;;;;;;;;;;5026606;28;20080;-78
2023/01/06 03:55:45;;;;;;;11.32;2.13;;;;;;;;;;5028686;28;20065;-77
2023/01/06 03:58:12;;;;;;;7.25;2.25;;;;;;;;;;5030615;28;20053;-78
2023/01/06 04:00:40;;;;;;;9.82;2.35;;;;;;;;;;5029242;28;20049;-78
2023/01/06 04:03:10;;;;;;;5.00;1.85;;;;;;;;;;5031108;28;20053;-78
2023/01/06 04:05:36;;;;;;;7.32;2.47;;;;;;;;;;5029327;28;20501;-77
2023/01/06 04:08:03;;;;;;;10.63;2.35;;;;;;;;;;5029519;28;20138;-78
2023/01/06 04:10:29;;;;;;;11.68;2.58;;;;;;;;;;5028311;28;20046;-78
2023/01/06 04:12:56;;;;;;;7.70;2.03;;;;;;;;;;5027802;28;20049;-78
2023/01/06 04:15:23;;;;;;;6.80;2.40;;;;;;;;;;5037907;28;20080;-78
2023/01/06 04:17:50;;;;;;;6.00;2.42;;;;;;;;;;5049608;28;20056;-78
2023/01/06 04:20:21;;;;;;;9.80;3.08;;;;;;;;;;5036118;28;20075;-78
2023/01/06 04:22:47;;;;;;;8.73;2.50;;;;;;;;;;5011640;28;20092;-78
2023/01/06 04:25:14;;;;;;;11.05;2.30;;;;;;;;;;5028690;28;20053;-78
2023/01/06 04:27:41;;;;;;;7.05;2.30;;;;;;;;;;5030489;28;20068;-78
2023/01/06 04:30:08;;;;;;;7.03;2.33;;;;;;;;;;5027952;28;20049;-77
2023/01/06 04:32:34;;;;;;;5.03;2.20;;;;;;;;;;5021247;28;20049;-78
2023/01/06 04:35:01;;;;;;;5.57;2.25;;;;;;;;;;5016190;28;20045;-76
2023/01/06 04:37:27;;;;;;;10.10;2.60;;;;;;;;;;5028544;28;20072;-78
2023/01/06 04:39:53;;;;;;;6.05;2.70;;;;;;;;;;5027465;28;20438;-77
2023/01/06 04:42:20;;;;;;;5.63;2.40;;;;;;;;;;5027276;28;20070;-77
2023/01/06 04:44:46;;;;;;;8.20;2.30;;;;;;;;;;5028430;28;20061;-77
2023/01/06 04:47:13;;;;;;;6.47;2.80;;;;;;;;;;5030133;28;20041;-77
2023/01/06 04:49:39;;;;;;;7.20;2.92;;;;;;;;;;5032587;28;20466;-76
2023/01/06 04:52:07;;;;;;;9.15;2.90;;;;;;;;;;5025906;28;20107;-76
2023/01/06 04:54:35;;;;;;;8.15;2.65;;;;;;;;;;5041821;28;20056;-76
2023/01/06 04:57:01;;;;;;;6.45;2.90;;;;;;;;;;5028431;28;20133;-77
2023/01/06 04:59:28;;;;;;;5.72;2.40;;;;;;;;;;5026462;28;20133;-76
2023/01/06 05:01:54;;;;;;;8.05;2.55;;;;;;;;;;5007432;28;20480;-77
2023/01/06 05:04:21;;;;;;;5.43;2.58;;;;;;;;;;5024497;28;20073;-77
2023/01/06 05:06:47;;;;;;;9.13;3.08;;;;;;;;;;5026288;28;20799;-77
2023/01/06 05:09:14;;;;;;;8.57;2.90;;;;;;;;;;5026028;28;20141;-77
2023/01/06 05:11:40;;;;;;;8.05;3.25;;;;;;;;;;5026647;28;20049;-75
2023/01/06 05:14:06;;;;;;;10.02;3.10;;;;;;;;;;5007613;28;20054;-77
2023/01/06 05:16:33;;;;;;;9.45;3.05;;;;;;;;;;5025360;28;20057;-77
2023/01/06 05:19:00;;;;;;;5.78;3.05;;;;;;;;;;5032547;28;20088;-74
2023/01/06 05:21:27;;;;;;;6.07;3.05;;;;;;;;;;5025963;28;20053;-74
2023/01/06 05:23:57;;;;;;;5.20;3.00;;;;;;;;;;5023674;28;20076;-75
2023/01/06 05:26:25;;;;;;;8.32;3.00;;;;;;;;;;5024691;28;20417;-75
2023/01/06 05:28:52;;;;;;;10.25;3.42;;;;;;;;;;5044922;28;20135;-75
2023/01/06 05:31:18;;;;;;;6.32;3.00;;;;;;;;;;5027465;28;20057;-75
2023/01/06 05:33:45;;;;;;;6.57;3.10;;;;;;;;;;5026925;28;20445;-79
2023/01/06 05:36:13;;;;;;;8.40;2.67;;;;;;;;;;5009642;28;20095;-78
2023/01/06 05:38:40;;;;;;;7.95;3.13;;;;;;;;;;5035917;28;20057;-79
2023/01/06 05:41:06;;;;;;;5.55;2.50;;;;;;;;;;5039752;28;20054;-78
2023/01/06 05:43:33;;;;;;;6.13;2.70;;;;;;;;;;5040797;28;20067;-78
2023/01/06 05:46:03;;;;;;;5.30;2.42;;;;;;;;;;5030574;28;20069;-78
2023/01/06 05:48:29;;;;;;;6.40;2.17;;;;;;;;;;5034273;28;20045;-78
2023/01/06 05:51:00;;;;;;;5.05;2.33;;;;;;;;;;5027180;28;20052;-78
2023/01/06 05:53:29;;;;;;;6.68;2.30;;;;;;;;;;5007251;28;20054;-78
2023/01/06 05:55:58;;;;;;;9.10;2.63;;;;;;;;;;5019925;28;20219;-78
2023/01/06 05:58:24;;;;;;;4.85;2.20;;;;;;;;;;5027535;28;20068;-79
2023/01/06 06:00:51;;;;;;;5.63;2.15;;;;;;;;;;5028374;28;20140;-78
2023/01/06 06:03:17;;;;;;;7.75;2.30;;;;;;;;;;5025730;28;20453;-78
2023/01/06 06:05:44;;;;;;;4.30;2.25;;;;;;;;;;5027907;28;20049;-79
2023/01/06 06:08:10;;;;;;;4.03;2.33;;;;;;;;;;5027897;28;20067;-78
2023/01/06 06:10:36;;;;;;;4.78;1.98;;;;;;;;;;5025664;28;20079;-78
2023/01/06 06:13:03;;;;;;;5.63;1.90;;;;;;;;;;5026831;28;20049;-79
2023/01/06 06:15:29;;;;;;;4.13;1.90;;;;;;;;;;5027569;28;20060;-79
2023/01/06 06:17:55;;;;;;;4.63;1.90;;;;;;;;;;5030281;28;20099;-77
2023/01/06 06:20:22;;;;;;;3.15;1.52;;;;;;;;;;5041469;28;20506;-79
2023/01/06 06:22:48;;;;;;;3.63;1.60;;;;;;;;;;5027005;28;20173;-79
2023/01/06 06:25:14;;;;;;;5.10;1.42;;;;;;;;;;5010432;28;20534;-79
2023/01/06 06:27:41;;;;;;;3.97;1.50;;;;;;;;;;5011460;28;20137;-79
2023/01/06 06:30:08;;;;;;;1.90;1.30;;;;;;;;;;5048750;28;20061;-79
2023/01/06 06:32:34;;;;;;;2.63;1.23;;;;;;;;;;5023916;28;20057;-79
2023/01/06 06:35:00;;;;;;;2.28;1.15;;;;;;;;;;5022727;28;20053;-78
2023/01/06 06:37:27;;;;;;;3.22;1.10;;;;;;;;;;5034747;28;20067;-78
2023/01/06 06:39:53;;;;;;;1.58;1.10;;;;;;;;;;5032383;28;20422;-80
2023/01/06 06:42:20;;;;;;;2.95;1.23;;;;;;;;;;5032414;28;20543;-78
2023/01/06 06:44:46;;;;;;;2.30;1.25;;;;;;;;;;5013912;28;20053;-79
2023/01/06 06:47:13;;;;;;;2.00;1.20;;;;;;;;;;5032594;28;20053;-79
2023/01/06 06:49:39;;;;;;;2.10;1.30;;;;;;;;;;5036837;28;20041;-79
2023/01/06 06:52:05;;;;;;;4.15;1.50;;;;;;;;;;5032179;28;20057;-78
2023/01/06 06:54:32;;;;;;;2.10;1.30;;;;;;;;;;5031842;28;20049;-78
2023/01/06 06:56:58;;;;;;;4.80;1.30;;;;;;;;;;5033830;28;20061;-79
2023/01/06 06:59:25;;;;;;;2.78;1.30;;;;;;;;;;5013989;28;20073;-79
2023/01/06 07:01:51;;;;;;;2.58;1.30;;;;;;;;;;5028800;28;20060;-78
2023/01/06 07:04:17;;;;;;;2.45;1.20;;;;;;;;;;5009447;28;20757;-77
2023/01/06 07:06:44;;;;;;;2.67;1.40;;;;;;;;;;5006069;28;20132;-77
2023/01/06 07:09:10;;;;;;;3.33;1.45;;;;;;;;;;5045106;28;20159;-77
2023/01/06 07:11:37;;;;;;;2.15;1.30;;;;;;;;;;5034695;28;20045;-78
2023/01/06 07:14:03;;;;;;;3.88;1.75;;;;;;;;;;5028370;28;20056;-77
2023/01/06 07:16:30;;;;;;;2.33;1.45;;;;;;;;;;5030208;28;20057;-78
2023/01/06 07:18:56;;;;;;;3.65;1.58;;;;;;;;;;5029517;28;20140;-78
2023/01/06 07:21:23;;;;;;;2.67;1.90;;;;;;;;;;5029296;28;20197;-77
2023/01/06 07:23:49;;;;;;;1.80;1.23;;;;;;;;;;5010394;28;20061;-78
2023/01/06 07:26:16;;;;;;;4.68;1.83;;;;;;;;;;5028592;28;20045;-78
2023/01/06 07:28:42;;;;;;;3.28;1.90;;;;;;;;;;5029896;28;20041;-78
2023/01/06 07:31:08;;;;;;;2.67;1.77;;;;;;;;;;5028844;28;20132;-78
2023/01/06 07:33:35;;;;;;;4.90;2.08;;;;;;;;;;5027679;28;20072;-78
2023/01/06 07:36:01;;;;;;;2.97;1.90;;;;;;;;;;5011214;28;20083;-78
2023/01/06 07:38:27;;;;;;;2.60;1.92;;;;;;;;;;5028743;28;20049;-78
2023/01/06 07:40:58;;;;;;;2.67;1.73;;;;;;;;;;5028326;28;20056;-80
2023/01/06 07:43:24;;;;;;;2.47;1.70;;;;;;;;;;5026316;28;20076;-78
2023/01/06 07:45:50;;;;;;;2.95;1.90;;;;;;;;;;5027144;28;20049;-78
2023/01/06 07:48:17;;;;;;;3.22;1.83;;;;;;;;;;5029163;28;20058;-77
2023/01/06 07:50:43;;;;;;;3.80;1.65;;;;;;;;;;5030106;28;20056;-78
2023/01/06 07:53:10;;;;;;;2.70;1.42;;;;;;;;;;5026905;28;20534;-79
2023/01/06 07:55:37;;;;;;;3.00;1.88;;;;;;;;;;5028577;28;20133;-78
2023/01/06 07:58:04;;;;;;;4.50;1.60;;;;;;;;;;5028225;28;20053;-78
2023/01/06 08:00:30;;;;;;;1.92;1.50;;;;;;;;;;5028471;28;20056;-78
2023/01/06 08:03:00;;;;;;;2.08;1.33;;;;;;;;;;5026968;28;20052;-77
2023/01/06 08:05:26;;;;;;;2.33;1.30;;;;;;;;;;5028303;28;20068;-78
2023/01/06 08:07:52;;;;;;;1.77;1.23;;;;;;;;;;5030059;28;20053;-78
2023/01/06 08:10:19;;;;;;;1.45;1.02;;;;;;;;;;5044724;28;20144;-78
2023/01/06 08:12:45;;;;;;;2.65;1.05;;;;;;;;;;5029608;28;20064;-76
2023/01/06 08:15:11;;;;;;;1.58;1.10;;;;;;;;;;5026723;28;20056;-78
2023/01/06 08:17:38;;;;;;;1.52;1.00;;;;;;;;;;5010303;28;20061;-78
2023/01/06 08:20:04;;;;;;;2.00;0.70;;;;;;;;;;5026831;28;20072;-79
2023/01/06 08:22:31;;;;;;;2.20;1.00;;;;;;;;;;5028225;28;20058;-79
2023/01/06 08:24:57;;;;;;;1.33;0.90;;;;;;;;;;5028584;28;20545;-78
2023/01/06 08:27:25;;;;;;;1.33;0.77;;;;;;;;;;5030438;28;20049;-78
2023/01/06 08:29:54;;;;;;;1.25;0.90;;;;;;;;;;5029593;28;20049;-79
2023/01/06 08:32:20;;;;;;;1.15;0.82;;;;;;;;;;5029711;28;20219;-78
2023/01/06 08:34:47;;;;;;;1.25;0.80;;;;;;;;;;5029106;28;20045;-79
2023/01/06 08:37:14;;;;;;;3.78;1.00;;;;;;;;;;5029434;28;20064;-79
2023/01/06 08:39:40;;;;;;;1.33;0.80;;;;;;;;;;5031433;28;20570;-79
2023/01/06 08:42:06;;;;;;;2.97;1.08;;;;;;;;;;5030357;28;20057;-79
2023/01/06 08:44:33;;;;;;;1.63;1.08;;;;;;;;;;5030406;28;20079;-78
2023/01/06 08:46:59;;;;;;;1.42;1.00;;;;;;;;;;5027770;28;20055;-79
2023/01/06 08:49:26;;;;;;;2.10;0.95;;;;;;;;;;5035842;28;20120;-79
2023/01/06 08:51:52;;;;;;;2.50;0.80;;;;;;;;;;5026577;28;20057;-79
2023/01/06 08:54:19;;;;;;;1.00;0.80;;;;;;;;;;5031283;28;20049;-79
2023/01/06 08:56:45;;;;;;;1.38;0.93;;;;;;;;;;5031141;28;20478;-79
2023/01/06 08:59:15;;;;;;;2.33;0.80;;;;;;;;;;5030248;28;20173;-78
2023/01/06 09:01:42;;;;;;;1.92;1.10;;;;;;;;;;5030294;28;20519;-79
2023/01/06 09:04:09;;;;;;;1.35;0.80;;;;;;;;;;5034490;28;20081;-79
2023/01/06 09:06:37;;;;;;;2.30;0.90;;;;;;;;;;5053577;28;20129;-79
2023/01/06 09:09:04;;;;;;;1.58;0.80;;;;;;;;;;5036152;28;20497;-79
2023/01/06 09:11:30;;;;;;;1.52;0.80;;;;;;;;;;5040571;28;20050;-78
2023/01/06 09:13:57;;;;;;;2.90;0.90;;;;;;;;;;5028042;28;20113;-78
2023/01/06 09:16:23;;;;;;;2.22;0.90;;;;;;;;;;5029265;28;20045;-79
2023/01/06 09:18:50;;;;;;;0.90;0.68;;;;;;;;;;5033964;28;20060;-79
2023/01/06 09:21:18;;;;;;;1.48;0.70;;;;;;;;;;5045367;28;20081;-78
2023/01/06 09:23:44;;;;;;;1.25;0.70;;;;;;;;;;5008190;28;20056;-79
2023/01/06 09:26:11;;;;;;;1.15;0.68;;;;;;;;;;5026592;28;20160;-78
2023/01/06 09:28:39;;;;;;;1.25;0.60;;;;;;;;;;5028948;28;20080;-78
2023/01/06 09:31:07;;;;;;;1.38;0.80;;;;;;;;;;5031758;28;20049;-78
2023/01/06 09:33:33;;;;;;;1.00;0.50;;;;;;;;;;5022524;28;20049;-77
2023/01/06 09:35:59;;;;;;;1.95;0.70;;;;;;;;;;5022757;28;20057;-78
2023/01/06 09:38:27;;;;;;;1.85;0.60;;;;;;;;;;5023958;28;20501;-78
2023/01/06 09:40:53;;;;;;;0.75;0.50;;;;;;;;;;5043272;28;20524;-78
2023/01/06 09:43:22;;;;;;;1.83;0.70;;;;;;;;;;5024800;28;20059;-78
2023/01/06 09:45:52;;;;;;;1.40;0.85;;;;;;;;;;5024020;28;20059;-78
2023/01/06 09:48:22;;;;;;;1.50;0.60;;;;;;;;;;5024975;28;20090;-78
2023/01/06 09:51:01;;;;;;;0.68;0.45;;;;;;;;;;5021213;28;20049;-78
2023/01/06 09:53:31;;;;;;;0.88;0.50;;;;;;;;;;5024176;28;20803;-78
2023/01/06 09:56:00;;;;;;;1.10;0.60;;;;;;;;;;5024988;28;20051;-79
2023/01/06 09:58:30;;;;;;;1.25;0.50;;;;;;;;;;5023534;28;20054;-77
2023/01/06 10:00:59;;;;;;;0.50;0.35;;;;;;;;;;5023055;28;20073;-78
2023/01/06 10:03:26;;;;;;;1.65;0.40;;;;;;;;;;5024646;28;20059;-78
2023/01/06 10:05:58;;;;;;;0.45;0.32;;;;;;;;;;5024238;28;20049;-77
2023/01/06 10:08:24;;;;;;;0.63;0.47;;;;;;;;;;5024079;28;20807;-78
2023/01/06 10:10:54;;;;;;;0.73;0.50;;;;;;;;;;5023892;28;20049;-77
2023/01/06 10:13:32;;;;;;;1.45;0.70;;;;;;;;;;5023537;28;20630;-78
2023/01/06 10:16:08;;;;;;;1.42;0.55;;;;;;;;;;5021390;28;20060;-78
2023/01/06 10:18:53;;;;;;;1.10;0.47;;;;;;;;;;5027616;28;20053;-78
2023/01/06 10:21:38;;;;;;;0.90;0.50;;;;;;;;;;5024177;28;20084;-78
2023/01/06 10:24:37;;;;;;;0.75;0.47;;;;;;;;;;5025163;28;20046;-78
2023/01/06 10:27:10;;;;;;;1.65;0.60;;;;;;;;;;4981220;28;20056;-78
2023/01/06 10:29:37;;;;;;;1.02;0.40;;;;;;;;;;5036476;28;20049;-78
2023/01/06 10:32:04;;;;;;;2.22;0.40;;;;;;;;;;5021532;28;20041;-77
2023/01/06 10:34:32;;;;;;;2.33;0.50;;;;;;;;;;5024248;28;20421;-78
2023/01/06 10:37:10;;;;;;;0.73;0.50;;;;;;;;;;5025701;28;20053;-78
2023/01/06 10:39:39;;;;;;;0.88;0.40;;;;;;;;;;5036461;28;20606;-78
2023/01/06 10:42:57;;;;;;;1.17;0.50;;;;;;;;;;5040046;28;20061;-77
2023/01/06 10:45:25;;;;;;;0.70;0.50;;;;;;;;;;4933375;29;20098;-78
2023/01/06 10:47:51;;;;;;;2.35;0.50;;;;;;;;;;4943263;29;20051;-77
2023/01/06 10:50:18;;;;;;;0.40;0.25;;;;;;;;;;4990149;28;20053;-78
2023/01/06 10:52:46;;;;;;;1.63;0.57;;;;;;;;;;5009525;28;20132;-78
2023/01/06 10:55:24;;;;;;;1.58;0.50;;;;;;;;;;5001099;28;20841;-77
2023/01/06 10:57:51;;;;;;;0.60;0.40;;;;;;;;;;5019408;28;20057;-78
2023/01/06 11:00:21;;;;;;;1.30;0.57;;;;;;;;;;5031904;28;20119;-77
2023/01/06 11:02:52;;;;;;;0.70;0.30;;;;;;;;;;5012160;28;20466;-77
2023/01/06 11:05:21;;;;;;;0.57;0.32;;;;;;;;;;5026296;28;20054;-78
2023/01/06 11:07:50;;;;;;;0.90;0.30;;;;;;;;;;5018480;28;20063;-78
2023/01/06 11:10:32;;;;;;;1.67;0.40;;;;;;;;;;5020386;28;20042;-79
2023/01/06 11:12:59;;;;;;;1.38;0.75;;;;;;;;;;5016599;28;20053;-78
2023/01/06 11:15:30;;;;;;;1.98;0.60;;;;;;;;;;5027384;28;20052;-77
2023/01/06 11:17:56;;;;;;;1.88;0.60;;;;;;;;;;5026138;28;20053;-78
2023/01/06 11:20:22;;;;;;;1.13;0.52;;;;;;;;;;5008808;28;20057;-78
2023/01/06 11:22:49;;;;;;;1.10;0.57;;;;;;;;;;5033457;28;20061;-78
2023/01/06 11:25:18;;;;;;;0.70;0.45;;;;;;;;;;5029638;28;20132;-77
2023/01/06 11:28:08;;;;;;;0.75;0.40;;;;;;;;;;5030272;28;20132;-78
2023/01/06 11:30:54;;;;;;;1.45;0.35;;;;;;;;;;5012320;28;20053;-78
2023/01/06 11:33:22;;;;;;;0.90;0.50;;;;;;;;;;5029453;28;20683;-78
2023/01/06 11:35:49;;;;;;;0.77;0.50;;;;;;;;;;5029752;28;20103;-78
2023/01/06 11:38:17;;;;;;;1.58;0.60;;;;;;;;;;5029412;28;20059;-78
2023/01/06 11:40:45;;;;;;;1.85;0.88;;;;;;;;;;5027672;28;20055;-77
2023/01/06 11:43:13;;;;;;;0.57;0.30;;;;;;;;;;5027173;28;20054;-77
2023/01/06 11:45:45;;;;;;;0.40;0.40;;;;;;;;;;5038592;28;20057;-78
2023/01/06 11:48:17;;;;;;;0.60;0.50;;;;;;;;;;5037040;28;20096;-78
2023/01/06 11:50:53;;;;;;;3.15;0.60;;;;;;;;;;5028943;28;20051;-76
2023/01/06 11:53:20;;;;;;;1.30;0.20;;;;;;;;;;5019839;28;20057;-77
2023/01/06 11:56:01;;;;;;;0.40;0.35;;;;;;;;;;5025383;28;20060;-78
2023/01/06 11:58:32;;;;;;;0.50;0.20;;;;;;;;;;5026189;28;20129;-77
2023/01/06 12:01:03;;;;;;;1.70;0.40;;;;;;;;;;5026294;28;20053;-76
2023/01/06 12:03:42;;;;;;;0.30;0.30;;;;;;;;;;5027522;28;20053;-76
2023/01/06 12:06:12;;;;;;;1.10;0.40;;;;;;;;;;5027872;28;20057;-77
2023/01/06 12:08:57;;;;;;;0.88;0.30;;;;;;;;;;5008894;28;20061;-77
2023/01/06 12:11:32;;;;;;;1.38;0.50;;;;;;;;;;5025219;28;20667;-78
2023/01/06 12:13:59;;;;;;;0.60;0.30;;;;;;;;;;5031854;28;20060;-77
2023/01/06 12:16:51;;;;;;;0.63;0.43;;;;;;;;;;5042935;28;20053;-77
2023/01/06 12:19:35;;;;;;;1.10;0.30;;;;;;;;;;5044081;28;20143;-77
2023/01/06 12:22:02;;;;;;;1.52;0.30;;;;;;;;;;5039346;28;20037;-76
2023/01/06 12:24:31;;;;;;;2.03;0.40;;;;;;;;;;5029379;28;20045;-77
2023/01/06 12:27:00;;;;;;;1.55;0.40;;;;;;;;;;5011186;28;20060;-77
2023/01/06 12:29:27;;;;;;;1.23;0.45;;;;;;;;;;5031696;28;20060;-78
2023/01/06 12:32:17;;;;;;;1.10;0.50;;;;;;;;;;5026893;28;20042;-78
2023/01/06 12:34:47;;;;;;;0.70;0.30;;;;;;;;;;5006960;28;20064;-77
2023/01/06 12:37:13;;;;;;;1.50;0.60;;;;;;;;;;5028596;28;20136;-77
2023/01/06 12:39:49;;;;;;;1.25;0.60;;;;;;;;;;5026744;28;20411;-78
2023/01/06 12:42:27;;;;;;;1.75;0.70;;;;;;;;;;5025496;28;20060;-77
2023/01/06 12:44:58;;;;;;;1.30;0.60;;;;;;;;;;5028242;28;20064;-76
2023/01/06 12:47:37;;;;;;;2.83;0.70;;;;;;;;;;5025758;28;20045;-76
2023/01/06 12:50:06;;;;;;;1.98;0.60;;;;;;;;;;5023262;28;20046;-78
2023/01/06 12:52:45;;;;;;;0.80;0.55;;;;;;;;;;5025368;28;20455;-77
2023/01/06 12:55:17;;;;;;;1.73;0.65;;;;;;;;;;5027122;28;20782;-77
2023/01/06 12:57:48;;;;;;;1.38;0.50;;;;;;;;;;5025660;28;20053;-78
2023/01/06 13:00:14;;;;;;;3.38;0.60;;;;;;;;;;5026864;28;20052;-78
2023/01/06 13:02:48;;;;;;;1.63;0.63;;;;;;;;;;5025432;28;20049;-78
2023/01/06 13:05:33;;;;;;;1.40;0.50;;;;;;;;;;5027201;28;20064;-76
2023/01/06 13:08:19;;;;;;;1.08;0.47;;;;;;;;;;5025064;28;20076;-78
2023/01/06 13:10:47;;;;;;;1.43;0.57;;;;;;;;;;5045554;28;20059;-78
2023/01/06 13:13:33;;;;;;;3.53;0.60;;;;;;;;;;5033348;28;20065;-79
2023/01/06 13:16:03;;;;;;;0.80;0.30;;;;;;;;;;5030008;28;20512;-79
2023/01/06 13:18:41;;;;;;;1.42;0.40;;;;;;;;;;5031420;28;20059;-78
2023/01/06 13:21:10;;;;;;;1.08;0.35;;;;;;;;;;5048352;28;20071;-78
2023/01/06 13:23:42;;;;;;;2.20;0.35;;;;;;;;;;5040088;28;20770;-79
2023/01/06 13:26:14;;;;;;;0.43;0.30;;;;;;;;;;5030243;28;20050;-78
2023/01/06 13:28:47;;;;;;;0.88;0.40;;;;;;;;;;5029798;28;20053;-78
2023/01/06 13:31:16;;;;;;;1.50;0.50;;;;;;;;;;5027768;28;20052;-76
2023/01/06 13:33:45;;;;;;;1.13;0.40;;;;;;;;;;5028058;28;20054;-78
2023/01/06 13:36:15;;;;;;;0.95;0.45;;;;;;;;;;5028535;28;20052;-78
2023/01/06 13:38:41;;;;;;;1.63;0.50;;;;;;;;;;5014729;28;20064;-78
2023/01/06 13:41:12;;;;;;;2.05;0.52;;;;;;;;;;5048722;28;20143;-77
2023/01/06 13:43:39;;;;;;;0.70;0.40;;;;;;;;;;5047056;28;20040;-78
2023/01/06 13:46:07;;;;;;;1.92;0.45;;;;;;;;;;5031236;28;20064;-77
2023/01/06 13:48:42;;;;;;;1.38;0.40;;;;;;;;;;5035505;28;20043;-77
2023/01/06 13:51:10;;;;;;;0.73;0.23;;;;;;;;;;5028546;28;20120;-75
2023/01/06 13:53:41;;;;;;;1.55;0.32;;;;;;;;;;5013123;28;20665;-77
2023/01/06 13:56:13;;;;;;;1.27;0.47;;;;;;;;;;5026246;28;20076;-76
2023/01/06 13:58:41;;;;;;;1.55;0.47;;;;;;;;;;5031237;28;20050;-76
2023/01/06 14:01:07;;;;;;;0.68;0.30;;;;;;;;;;5028146;28;20065;-76
2023/01/06 14:03:35;;;;;;;3.17;0.30;;;;;;;;;;5027322;28;20049;-76
2023/01/06 14:06:02;;;;;;;0.85;0.38;;;;;;;;;;5009372;28;20049;-77
2023/01/06 14:08:34;;;;;;;0.95;0.50;;;;;;;;;;5026698;28;20045;-77
2023/01/06 14:11:03;;;;;;;1.02;0.50;;;;;;;;;;5022659;28;20061;-75
2023/01/06 14:13:38;;;;;;;0.50;0.30;;;;;;;;;;5022808;28;20049;-77
2023/01/06 14:16:09;;;;;;;0.90;0.35;;;;;;;;;;5022858;28;20054;-77
2023/01/06 14:18:42;;;;;;;0.93;0.40;;;;;;;;;;5008745;28;20129;-77
2023/01/06 14:21:09;;;;;;;0.75;0.40;;;;;;;;;;5024538;28;20053;-77
2023/01/06 14:23:35;;;;;;;1.15;0.40;;;;;;;;;;5024693;28;21310;-76
2023/01/06 14:26:02;;;;;;;0.93;0.30;;;;;;;;;;5021503;28;20071;-77
2023/01/06 14:28:32;;;;;;;0.80;0.43;;;;;;;;;;5025227;28;20052;-77
2023/01/06 14:31:17;;;;;;;1.58;0.40;;;;;;;;;;5005931;28;20093;-77
2023/01/06 14:33:44;;;;;;;0.87;0.40;;;;;;;;;;5023238;28;20144;-77
2023/01/06 14:36:15;;;;;;;2.13;0.40;;;;;;;;;;5023574;28;20299;-77
2023/01/06 14:38:57;;;;;;;3.10;0.75;;;;;;;;;;5024997;28;20513;-78
2023/01/06 14:41:28;;;;;;;0.98;0.40;;;;;;;;;;5022447;28;20156;-78
2023/01/06 14:44:01;;;;;;;3.90;0.50;;;;;;;;;;5021918;28;20048;-77
2023/01/06 14:46:30;;;;;;;1.25;0.50;;;;;;;;;;5005904;28;20081;-75
2023/01/06 14:48:59;;;;;;;2.00;0.40;;;;;;;;;;5027613;28;20782;-77
2023/01/06 14:51:25;;;;;;;1.10;0.40;;;;;;;;;;5026471;28;20046;-77
2023/01/06 14:53:56;;;;;;;1.08;0.40;;;;;;;;;;5005026;28;20134;-76
2023/01/06 14:56:24;;;;;;;0.65;0.35;;;;;;;;;;5025727;28;20045;-77
2023/01/06 14:59:00;;;;;;;0.45;0.30;;;;;;;;;;5011908;28;20504;-77